Loyal, WI (54446)

9:21 AM CST on February 12, 2016 (GMT -0600)
Backyard, N. Andrews Ave | | Change Station
CLOSE
Current Station
Personal Weather Station
Location: Greenwood, WI
Elevation: 1161 ft
Nearby Weather Stations
Active Advisory: Wind Chill Advisory Active Notice: Public Information Statement

Elev 1161 ft 44.77 °N, 90.60 °W | Updated 5 seconds ago

Clear
Clear
7.7 °F
Feels Like -7 °F
N
11.4
Wind Variable Wind from WNW
Gusts 18.6 mph

Today
High -- | Low -- °F
--% Chance of Precip.
Yesterday
High -- | Low -- °F
Precip. -- in
Pressure 30.22 in
Visibility 8.0 miles
Clouds Clear
Windchill -7 °F
Dew Point -11 °F
Humidity 41%
Rainfall 0.00 in
Snow Depth Not available.
7:07 AM 5:25 PM
Waxing Crescent, 21% visible
METAR KMFI 121454Z AUTO 32018KT 8SM CLR M13/M20 A3014 RMK AO2 PK WND 32029/1440 SLP234 60000 T11331200 53017
Pressure 30.22 in
Visibility 8.0 miles
Clouds Clear
Windchill -7 °F
Dew Point -11 °F
Humidity 41%
Rainfall 0.00 in
Snow Depth Not available.
7:07 AM 5:25 PM
Waxing Crescent, 21% visible
METAR KMFI 121454Z AUTO 32018KT 8SM CLR M13/M20 A3014 RMK AO2 PK WND 32029/1440 SLP234 60000 T11331200 53017

10-Day Weather Forecast

Almanac

Astronomy

Feb. 12, 2016 Rise Set
Actual Time
Civil Twilight
Nautical Twilight
Astronomical Twilight
Moon
Length of Visible Light
Length of Day
Tomorrow will be .
, % of the Moon is Illuminated

Today's Extremes

State Highs State Lows

Community

WunderPhotos

Upload Photos

1,892,329 photos uploaded!

WunderBlog® & News

Nearby

Air Quality

  Air Quality AQ Index Pollutant
Not available.

Snow Depth

Station Depth Elevation

Earthquake Activity

City Distance Mag. Time & Date
Minimum magnitude displayed is 2.5.

Coastal Water Temperatures

Place Temperature

Stations

Nearby Weather Stations

Station Location Temp. Windchill Dew Point Humidity Wind Precip. Elev Updated Type
                   

Watches & Warnings

Wind Chill Advisory
Issued: 3:09 AM CST Feb. 12, 2016 – National Weather Service

... Wind Chill Advisory in effect from 6 PM this evening to 9 am
CST Saturday...

The National Weather Service in La Crosse has issued a Wind Chill
Advisory... which is in effect from 6 PM this evening to 9 am CST
Saturday.

* Expect wind chills to range from 20 to 30 below zero this
evening through mid morning Saturday... with the coldest wind
chills occurring between midnight and 9 am Saturday.

* These cold wind chills will cause frostbite in as little as 30
minutes to exposed skin.

Precautionary/preparedness actions...

A Wind Chill Advisory means that cold air and the wind will
combine to create low wind chills. Frost bite and hypothermia can
occur if precautions are not taken. Make sure you wear a hat and
gloves.


Lawrence